Jack Robertson — WDE5993 — position and weather

sailwx.info

Track history (hours):
 
Tides and Currents Weather Stations Pressure Air Temp Water Temp Dewpoint Dewpoint Depression Visibility Wind Speed Wind Dir Waves Ship Positions

Oceanographic research ship Jack Robertson (United States)

Owner: University of Washington Applied Physics Laboratory, Seattle, WA. More information available from US FCC via Universal Licensing System and Coast Guard Vessel Documentation Center.

Last reported at 2017-Oct-05 22:54 UTC. Time now 2017-Oct-17 15:04 UTC.
Position N 47°39' W 122°19'.
Warning: this ship's position is 11 days out of date.

; draft 1.7 m.

Type: Other ship. MMSI: 367374350.

Date/timePositionNaut miles runAvg speedWind from/ knotsBaromVisibWave heightAir tempDewpointWater temp
2017-Oct-05 22:54N 47°39' W 122°19'1 3.3
2017-Oct-05 22:31N 47°39' W 122°21'2 4.2
2017-Oct-05 22:00N 47°40' W 122°24'3 6.3
2017-Oct-05 21:30N 47°43' W 122°25'5 9.0
2017-Oct-05 21:00N 47°47' W 122°26'4 8.6
2017-Oct-05 20:30N 47°52' W 122°27'5 9.0
2017-Oct-05 20:00N 47°56' W 122°29'5 1.1
2017-Oct-05 15:24N 47°60' W 122°35'4 9.8
2017-Oct-05 15:00N 47°57' W 122°31'510.3
2017-Oct-05 14:30N 47°53' W 122°26'4 8.7
2017-Oct-05 14:00N 47°49' W 122°24'5 9.1
2017-Oct-05 13:30N 47°44' W 122°25'4 8.3
2017-Oct-05 13:00N 47°40' W 122°24'2 4.7
2017-Oct-05 12:30N 47°39' W 122°21'1 2.9
2017-Oct-05 12:00N 47°39' W 122°19'  
2017-Sep-26 22:58N 47°39' W 122°19'2 3.9
2017-Sep-26 22:30N 47°39' W 122°22'1 3.0
2017-Sep-26 22:00N 47°40' W 122°24'2 4.5
2017-Sep-26 21:30N 47°42' W 122°25'2 3.8
2017-Sep-26 21:01N 47°43' W 122°23'0 0.5
2017-Sep-26 20:31N 47°44' W 122°23'0 0.0
2017-Sep-26 20:00N 47°44' W 122°23'0 0.1
2017-Sep-26 19:30N 47°44' W 122°23'0 0.2
2017-Sep-26 19:00N 47°44' W 122°23'0 0.4
2017-Sep-26 18:30N 47°44' W 122°23'4 7.2
2017-Sep-26 18:00N 47°41' W 122°25'2 3.8
2017-Sep-26 17:30N 47°40' W 122°22'2 4.3
2017-Sep-26 17:00N 47°39' W 122°19'  
Track history (hours):
 
Tides and Currents Weather Stations Pressure Air Temp Water Temp Dewpoint Dewpoint Depression Visibility Wind Speed Wind Dir Waves Ship Positions

Oceanographic research ship Jack Robertson (United States)

Owner: University of Washington Applied Physics Laboratory, Seattle, WA. More information available from US FCC via Universal Licensing System and Coast Guard Vessel Documentation Center.

Last reported at 2017-Oct-05 22:54 UTC. Time now 2017-Oct-17 15:04 UTC.
Position N 47°39' W 122°19'.
Warning: this ship's position is 11 days out of date.

; draft 1.7 m.

Type: Other ship. MMSI: 367374350.

Date/timePositionNaut miles runAvg speedWind from/ knotsBaromVisibWave heightAir tempDewpointWater temp
2017-Oct-05 22:54N 47°39' W 122°19'1 3.3
2017-Oct-05 22:31N 47°39' W 122°21'2 4.2
2017-Oct-05 22:00N 47°40' W 122°24'3 6.3
2017-Oct-05 21:30N 47°43' W 122°25'5 9.0
2017-Oct-05 21:00N 47°47' W 122°26'4 8.6
2017-Oct-05 20:30N 47°52' W 122°27'5 9.0
2017-Oct-05 20:00N 47°56' W 122°29'5 1.1
2017-Oct-05 15:24N 47°60' W 122°35'4 9.8
2017-Oct-05 15:00N 47°57' W 122°31'510.3
2017-Oct-05 14:30N 47°53' W 122°26'4 8.7
2017-Oct-05 14:00N 47°49' W 122°24'5 9.1
2017-Oct-05 13:30N 47°44' W 122°25'4 8.3
2017-Oct-05 13:00N 47°40' W 122°24'2 4.7
2017-Oct-05 12:30N 47°39' W 122°21'1 2.9
2017-Oct-05 12:00N 47°39' W 122°19'  
2017-Sep-26 22:58N 47°39' W 122°19'2 3.9
2017-Sep-26 22:30N 47°39' W 122°22'1 3.0
2017-Sep-26 22:00N 47°40' W 122°24'2 4.5
2017-Sep-26 21:30N 47°42' W 122°25'2 3.8
2017-Sep-26 21:01N 47°43' W 122°23'0 0.5
2017-Sep-26 20:31N 47°44' W 122°23'0 0.0
2017-Sep-26 20:00N 47°44' W 122°23'0 0.1
2017-Sep-26 19:30N 47°44' W 122°23'0 0.2
2017-Sep-26 19:00N 47°44' W 122°23'0 0.4
2017-Sep-26 18:30N 47°44' W 122°23'4 7.2
2017-Sep-26 18:00N 47°41' W 122°25'2 3.8
2017-Sep-26 17:30N 47°40' W 122°22'2 4.3
2017-Sep-26 17:00N 47°39' W 122°19'  

Dump ship's entire track history